createdAt,value
2022-08-16T00:04:22.044Z,3.20
2022-08-16T00:14:23.494Z,3.08
2022-08-16T00:24:32.194Z,3.58
2022-08-16T00:34:41.358Z,3.40
2022-08-16T00:44:46.129Z,3.95
2022-08-16T00:54:47.575Z,3.88
2022-08-16T01:05:10.355Z,3.88
2022-08-16T01:15:11.053Z,4.18
2022-08-16T01:25:12.842Z,4.65
2022-08-16T01:35:16.803Z,4.13
2022-08-16T01:45:19.665Z,4.28
2022-08-16T01:55:21.728Z,5.00
2022-08-16T02:05:23.633Z,4.70
2022-08-16T02:15:25.943Z,5.20
2022-08-16T02:25:51.685Z,5.10
2022-08-16T02:35:54.559Z,5.22
2022-08-16T02:45:59.946Z,4.35
2022-08-16T02:56:01.708Z,5.20
2022-08-16T03:06:03.134Z,4.60
2022-08-16T03:16:33.168Z,5.13
2022-08-16T03:26:39.965Z,5.88
2022-08-16T03:36:43.831Z,6.37
2022-08-16T03:46:50.176Z,5.68
2022-08-16T03:56:57.254Z,6.28
2022-08-16T04:06:59.516Z,6.38
2022-08-16T04:17:01.778Z,6.68
2022-08-16T04:27:03.154Z,5.75
2022-08-16T04:37:10.285Z,5.50
2022-08-16T04:47:23.912Z,5.18
2022-08-16T04:57:25.702Z,5.28
2022-08-16T05:07:31.578Z,5.65
2022-08-16T05:17:35.731Z,5.83
2022-08-16T05:27:37.493Z,6.22
2022-08-16T05:37:44.479Z,7.03
2022-08-16T05:47:45.822Z,6.78
2022-08-16T05:57:47.697Z,6.47
2022-08-16T06:07:58.225Z,7.60
2022-08-16T06:18:00.625Z,7.55
2022-08-16T06:28:02.001Z,6.55
2022-08-16T06:38:31.983Z,6.57
2022-08-16T06:48:33.199Z,7.00
2022-08-16T06:58:35.188Z,6.80
2022-08-16T07:08:38.357Z,6.13
2022-08-16T07:18:39.921Z,5.65
2022-08-16T07:29:00.849Z,5.40
2022-08-16T07:39:02.181Z,5.95
2022-08-16T07:49:03.513Z,6.07
2022-08-16T07:59:05.126Z,5.57
2022-08-16T08:09:06.472Z,5.40
2022-08-16T08:19:12.493Z,6.50
2022-08-16T08:29:14.068Z,5.97
2022-08-16T08:39:15.594Z,6.22
2022-08-16T08:49:22.416Z,5.85
2022-08-16T08:59:46.193Z,4.88
2022-08-16T09:09:48.349Z,5.38
2022-08-16T09:19:55.115Z,4.63
2022-08-16T09:30:00.414Z,5.10
2022-08-16T09:40:04.039Z,5.47
2022-08-16T09:50:33.273Z,5.03
2022-08-16T10:00:44.729Z,5.03
2022-08-16T10:11:06.812Z,5.07
2022-08-16T10:31:16.784Z,5.18
2022-08-16T10:41:34.520Z,4.78
2022-08-16T10:52:02.331Z,4.75
2022-08-16T11:12:19.325Z,4.47
2022-08-16T11:22:38.624Z,3.38
2022-08-16T11:32:44.441Z,4.53
2022-08-16T11:42:46.053Z,3.83
2022-08-16T11:52:47.404Z,3.95
2022-08-16T12:02:48.786Z,3.50
2022-08-16T12:12:52.061Z,3.93
2022-08-16T12:22:53.483Z,3.40
2022-08-16T12:32:57.515Z,3.60
2022-08-16T12:43:00.701Z,3.10
2022-08-16T13:03:06.100Z,3.50
2022-08-16T13:13:10.013Z,3.70
2022-08-16T13:23:11.759Z,3.70
2022-08-16T13:33:26.167Z,3.50
2022-08-16T13:43:32.635Z,3.90
2022-08-16T13:53:34.131Z,3.97
2022-08-16T14:03:35.436Z,3.58
2022-08-16T14:13:38.381Z,4.10
2022-08-16T14:23:40.478Z,3.50
2022-08-16T14:33:42.928Z,3.53
2022-08-16T14:43:44.612Z,3.90
2022-08-16T14:53:46.096Z,3.30
2022-08-16T15:03:55.323Z,3.42
2022-08-16T15:13:56.716Z,3.13
2022-08-16T15:23:58.067Z,3.47
2022-08-16T15:33:59.405Z,3.13
2022-08-16T15:44:05.285Z,3.22
2022-08-16T15:54:29.347Z,3.35
2022-08-16T16:04:32.802Z,3.10
2022-08-16T16:14:34.133Z,2.90
2022-08-16T16:24:36.086Z,3.10
2022-08-16T16:34:37.518Z,3.25
2022-08-16T16:44:39.684Z,3.30
2022-08-16T16:54:52.432Z,3.10
2022-08-16T17:04:57.603Z,3.10
2022-08-16T17:14:59.538Z,3.40
2022-08-16T17:25:00.874Z,3.13
2022-08-16T17:35:10.232Z,3.30
2022-08-16T17:45:13.016Z,3.50
2022-08-16T17:55:14.403Z,3.60
2022-08-16T18:05:16.312Z,3.40
2022-08-16T18:15:18.261Z,3.60
2022-08-16T18:25:20.823Z,3.97
2022-08-16T18:35:22.222Z,4.50
2022-08-16T18:45:23.650Z,4.05
2022-08-16T18:55:25.031Z,4.15
2022-08-16T19:05:26.669Z,4.03
2022-08-16T19:15:28.834Z,4.45
2022-08-16T19:25:47.395Z,3.83
2022-08-16T19:35:51.717Z,4.45
2022-08-16T19:45:53.008Z,4.10
2022-08-16T19:55:54.476Z,4.75
2022-08-16T20:05:56.595Z,4.93
2022-08-16T20:15:57.952Z,4.15
2022-08-16T20:25:59.293Z,4.32
2022-08-16T20:36:00.647Z,5.00
2022-08-16T20:46:02.018Z,4.50
2022-08-16T20:56:03.461Z,5.10
2022-08-16T21:06:05.400Z,5.22
2022-08-16T21:16:06.758Z,5.20
2022-08-16T21:26:10.892Z,5.43
2022-08-16T21:36:12.627Z,6.03
2022-08-16T21:46:14.011Z,5.97
2022-08-16T21:56:16.732Z,6.13
2022-08-16T22:06:18.839Z,6.33
2022-08-16T22:16:20.162Z,6.43
2022-08-16T22:26:29.943Z,6.97
2022-08-16T22:36:32.881Z,7.35
2022-08-16T22:46:34.960Z,8.35
2022-08-16T22:56:36.321Z,7.53
2022-08-16T23:06:37.654Z,7.47
2022-08-16T23:16:38.939Z,7.40
2022-08-16T23:26:46.920Z,7.80
2022-08-16T23:36:49.650Z,7.68
2022-08-16T23:46:51.027Z,8.35
2022-08-16T23:56:52.398Z,7.97
